sensor_id;sensor_type;location;lat;lon;timestamp;pressure;altitude;pressure_sealevel;temperature;humidity
76853;BME280;65825;52.232;10.566;2023-02-08T00:02:10;103206.56;;;-4.67;87.26
76853;BME280;65825;52.232;10.566;2023-02-08T00:04:35;103211.94;;;-4.64;88.65
76853;BME280;65825;52.232;10.566;2023-02-08T00:07:00;103214.34;;;-4.54;88.26
76853;BME280;65825;52.232;10.566;2023-02-08T00:09:26;103207.75;;;-4.62;88.09
76853;BME280;65825;52.232;10.566;2023-02-08T00:11:51;103204.09;;;-4.65;87.96
76853;BME280;65825;52.232;10.566;2023-02-08T00:14:16;103203.88;;;-4.68;87.68
76853;BME280;65825;52.232;10.566;2023-02-08T00:16:41;103203.00;;;-4.69;88.22
76853;BME280;65825;52.232;10.566;2023-02-08T00:19:07;103205.03;;;-4.76;89.73
76853;BME280;65825;52.232;10.566;2023-02-08T00:21:32;103196.63;;;-4.74;89.49
76853;BME280;65825;52.232;10.566;2023-02-08T00:23:57;103193.00;;;-4.64;89.43
76853;BME280;65825;52.232;10.566;2023-02-08T00:26:23;103203.78;;;-4.70;89.16
76853;BME280;65825;52.232;10.566;2023-02-08T00:28:48;103198.81;;;-4.67;88.08
76853;BME280;65825;52.232;10.566;2023-02-08T00:31:14;103202.75;;;-4.72;88.18
76853;BME280;65825;52.232;10.566;2023-02-08T00:33:39;103197.50;;;-4.73;87.84
76853;BME280;65825;52.232;10.566;2023-02-08T00:36:06;103199.22;;;-4.85;89.11
76853;BME280;65825;52.232;10.566;2023-02-08T00:38:32;103188.38;;;-4.81;89.46
76853;BME280;65825;52.232;10.566;2023-02-08T00:40:57;103187.47;;;-4.82;90.06
76853;BME280;65825;52.232;10.566;2023-02-08T00:43:23;103175.59;;;-4.80;89.59
76853;BME280;65825;52.232;10.566;2023-02-08T00:45:55;103178.25;;;-4.78;89.15
76853;BME280;65825;52.232;10.566;2023-02-08T00:48:21;103179.38;;;-4.75;89.20
76853;BME280;65825;52.232;10.566;2023-02-08T00:53:27;103179.38;;;-4.75;89.41
76853;BME280;65825;52.232;10.566;2023-02-08T00:55:54;103182.03;;;-4.73;88.89
76853;BME280;65825;52.232;10.566;2023-02-08T00:58:20;103180.16;;;-4.76;89.60
76853;BME280;65825;52.232;10.566;2023-02-08T01:00:45;103172.22;;;-4.79;89.42
76853;BME280;65825;52.232;10.566;2023-02-08T01:03:11;103184.44;;;-4.76;89.35
76853;BME280;65825;52.232;10.566;2023-02-08T01:05:37;103178.22;;;-4.67;88.56
76853;BME280;65825;52.232;10.566;2023-02-08T01:08:02;103181.59;;;-4.68;88.45
76853;BME280;65825;52.232;10.566;2023-02-08T01:10:28;103181.50;;;-4.81;88.57
76853;BME280;65825;52.232;10.566;2023-02-08T01:12:53;103183.91;;;-4.84;89.27
76853;BME280;65825;52.232;10.566;2023-02-08T01:15:18;103178.06;;;-4.81;88.79
76853;BME280;65825;52.232;10.566;2023-02-08T01:17:44;103178.06;;;-4.81;87.87
76853;BME280;65825;52.232;10.566;2023-02-08T01:20:09;103178.09;;;-4.93;88.15
76853;BME280;65825;52.232;10.566;2023-02-08T01:22:35;103187.53;;;-4.93;88.51
76853;BME280;65825;52.232;10.566;2023-02-08T01:25:00;103175.75;;;-4.90;90.91
76853;BME280;65825;52.232;10.566;2023-02-08T01:27:25;103171.06;;;-4.71;90.54
76853;BME280;65825;52.232;10.566;2023-02-08T01:29:51;103172.31;;;-4.53;90.23
76853;BME280;65825;52.232;10.566;2023-02-08T01:32:16;103166.06;;;-4.56;90.25
76853;BME280;65825;52.232;10.566;2023-02-08T01:34:42;103164.38;;;-4.56;90.17
76853;BME280;65825;52.232;10.566;2023-02-08T01:37:07;103174.78;;;-4.54;89.77
76853;BME280;65825;52.232;10.566;2023-02-08T01:39:32;103167.75;;;-4.57;89.55
76853;BME280;65825;52.232;10.566;2023-02-08T01:41:57;103164.28;;;-4.57;89.99
76853;BME280;65825;52.232;10.566;2023-02-08T01:47:25;103166.75;;;-4.59;89.65
76853;BME280;65825;52.232;10.566;2023-02-08T01:49:51;103169.44;;;-4.57;89.39
76853;BME280;65825;52.232;10.566;2023-02-08T01:52:19;103159.28;;;-4.43;88.83
76853;BME280;65825;52.232;10.566;2023-02-08T01:54:52;103154.53;;;-4.37;89.15
76853;BME280;65825;52.232;10.566;2023-02-08T01:57:20;103150.78;;;-4.29;88.52
76853;BME280;65825;52.232;10.566;2023-02-08T01:59:50;103156.53;;;-4.33;88.64
76853;BME280;65825;52.232;10.566;2023-02-08T02:02:21;103152.22;;;-4.45;89.18
76853;BME280;65825;52.232;10.566;2023-02-08T02:04:47;103162.94;;;-4.39;89.23
76853;BME280;65825;52.232;10.566;2023-02-08T02:07:15;103150.34;;;-4.48;89.26
76853;BME280;65825;52.232;10.566;2023-02-08T02:12:32;103162.06;;;-4.64;89.87
76853;BME280;65825;52.232;10.566;2023-02-08T02:14:59;103158.00;;;-4.61;89.78
76853;BME280;65825;52.232;10.566;2023-02-08T02:17:25;103159.81;;;-4.60;89.29
76853;BME280;65825;52.232;10.566;2023-02-08T02:20:03;103159.59;;;-4.63;89.60
76853;BME280;65825;52.232;10.566;2023-02-08T02:25:40;103144.56;;;-4.57;88.30
76853;BME280;65825;52.232;10.566;2023-02-08T02:34:01;103136.72;;;-4.58;88.08
76853;BME280;65825;52.232;10.566;2023-02-08T02:36:50;103133.16;;;-4.47;87.06
76853;BME280;65825;52.232;10.566;2023-02-08T02:42:02;103141.19;;;-4.56;87.31
76853;BME280;65825;52.232;10.566;2023-02-08T02:45:24;103145.06;;;-4.62;87.14
76853;BME280;65825;52.232;10.566;2023-02-08T02:48:01;103141.19;;;-4.56;87.33
76853;BME280;65825;52.232;10.566;2023-02-08T02:50:42;103139.50;;;-4.55;86.73
76853;BME280;65825;52.232;10.566;2023-02-08T02:53:23;103145.75;;;-4.65;87.11
76853;BME280;65825;52.232;10.566;2023-02-08T02:55:58;103145.06;;;-4.62;86.57
76853;BME280;65825;52.232;10.566;2023-02-08T02:58:25;103149.59;;;-4.58;86.41
76853;BME280;65825;52.232;10.566;2023-02-08T03:00:53;103143.56;;;-4.59;86.77
76853;BME280;65825;52.232;10.566;2023-02-08T03:03:22;103151.22;;;-4.72;86.73
76853;BME280;65825;52.232;10.566;2023-02-08T03:05:49;103147.19;;;-4.68;86.20
76853;BME280;65825;52.232;10.566;2023-02-08T03:11:25;103141.34;;;-4.66;85.66
76853;BME280;65825;52.232;10.566;2023-02-08T03:22:16;103146.06;;;-4.85;85.94
76853;BME280;65825;52.232;10.566;2023-02-08T03:27:27;103152.72;;;-5.00;87.23
76853;BME280;65825;52.232;10.566;2023-02-08T03:32:51;103149.22;;;-5.25;88.70
76853;BME280;65825;52.232;10.566;2023-02-08T03:35:26;103147.44;;;-5.26;88.43
76853;BME280;65825;52.232;10.566;2023-02-08T03:37:57;103145.03;;;-5.23;87.94
76853;BME280;65825;52.232;10.566;2023-02-08T03:40:27;103149.34;;;-5.35;89.38
76853;BME280;65825;52.232;10.566;2023-02-08T03:42:57;103150.03;;;-5.37;88.77
76853;BME280;65825;52.232;10.566;2023-02-08T03:45:31;103139.19;;;-5.45;89.79
76853;BME280;65825;52.232;10.566;2023-02-08T03:47:59;103135.25;;;-5.40;89.50
76853;BME280;65825;52.232;10.566;2023-02-08T03:50:28;103142.66;;;-5.44;89.16
76853;BME280;65825;52.232;10.566;2023-02-08T03:52:55;103144.81;;;-5.50;90.02
76853;BME280;65825;52.232;10.566;2023-02-08T03:55:26;103149.03;;;-5.51;89.39
76853;BME280;65825;52.232;10.566;2023-02-08T03:57:56;103150.50;;;-5.54;90.05
76853;BME280;65825;52.232;10.566;2023-02-08T04:00:24;103145.91;;;-5.58;89.71
76853;BME280;65825;52.232;10.566;2023-02-08T04:03:01;103140.91;;;-5.57;89.68
76853;BME280;65825;52.232;10.566;2023-02-08T04:05:29;103150.84;;;-5.61;90.77
76853;BME280;65825;52.232;10.566;2023-02-08T04:07:54;103148.94;;;-5.64;91.52
76853;BME280;65825;52.232;10.566;2023-02-08T04:10:20;103147.63;;;-5.70;92.22
76853;BME280;65825;52.232;10.566;2023-02-08T04:12:47;103159.13;;;-5.65;91.76
76853;BME280;65825;52.232;10.566;2023-02-08T04:15:13;103155.53;;;-5.56;90.78
76853;BME280;65825;52.232;10.566;2023-02-08T04:17:38;103153.97;;;-5.54;91.70
76853;BME280;65825;52.232;10.566;2023-02-08T04:20:04;103156.09;;;-5.60;91.88
76853;BME280;65825;52.232;10.566;2023-02-08T04:22:29;103154.97;;;-5.52;91.68
76853;BME280;65825;52.232;10.566;2023-02-08T04:24:54;103162.59;;;-5.53;91.05
76853;BME280;65825;52.232;10.566;2023-02-08T04:27:20;103160.13;;;-5.52;90.52
76853;BME280;65825;52.232;10.566;2023-02-08T04:29:45;103157.31;;;-5.43;89.93
76853;BME280;65825;52.232;10.566;2023-02-08T04:32:10;103156.34;;;-5.57;91.06
76853;BME280;65825;52.232;10.566;2023-02-08T04:34:37;103155.00;;;-5.63;91.00
76853;BME280;65825;52.232;10.566;2023-02-08T04:37:03;103150.75;;;-5.63;90.69
76853;BME280;65825;52.232;10.566;2023-02-08T04:39:29;103154.75;;;-5.55;89.53
76853;BME280;65825;52.232;10.566;2023-02-08T04:41:54;103152.72;;;-5.59;90.12
76853;BME280;65825;52.232;10.566;2023-02-08T04:44:19;103148.59;;;-5.57;89.86
76853;BME280;65825;52.232;10.566;2023-02-08T04:46:44;103157.44;;;-5.53;89.08
76853;BME280;65825;52.232;10.566;2023-02-08T04:49:10;103154.31;;;-5.61;89.90
76853;BME280;65825;52.232;10.566;2023-02-08T04:51:35;103162.50;;;-5.78;90.31
76853;BME280;65825;52.232;10.566;2023-02-08T04:54:00;103164.53;;;-5.74;90.63
76853;BME280;65825;52.232;10.566;2023-02-08T04:56:26;103168.63;;;-5.76;91.26
76853;BME280;65825;52.232;10.566;2023-02-08T04:58:51;103163.75;;;-5.84;91.48
76853;BME280;65825;52.232;10.566;2023-02-08T05:01:16;103158.03;;;-6.03;91.77
76853;BME280;65825;52.232;10.566;2023-02-08T05:03:41;103161.06;;;-5.86;91.63
76853;BME280;65825;52.232;10.566;2023-02-08T05:06:07;103167.66;;;-5.78;90.79
76853;BME280;65825;52.232;10.566;2023-02-08T05:08:32;103164.53;;;-5.74;90.91
76853;BME280;65825;52.232;10.566;2023-02-08T05:10:57;103162.63;;;-5.76;90.48
76853;BME280;65825;52.232;10.566;2023-02-08T05:13:23;103154.44;;;-5.71;90.67
76853;BME280;65825;52.232;10.566;2023-02-08T05:15:48;103156.47;;;-5.90;91.02
76853;BME280;65825;52.232;10.566;2023-02-08T05:18:13;103149.56;;;-5.91;91.19
76853;BME280;65825;52.232;10.566;2023-02-08T05:20:38;103148.88;;;-5.88;91.64
76853;BME280;65825;52.232;10.566;2023-02-08T05:23:04;103152.69;;;-5.83;90.85
76853;BME280;65825;52.232;10.566;2023-02-08T05:25:30;103157.94;;;-5.82;89.80
76853;BME280;65825;52.232;10.566;2023-02-08T05:27:55;103148.19;;;-5.74;89.28
76853;BME280;65825;52.232;10.566;2023-02-08T05:30:20;103155.22;;;-5.72;89.93
76853;BME280;65825;52.232;10.566;2023-02-08T05:32:45;103163.28;;;-5.79;90.14
76853;BME280;65825;52.232;10.566;2023-02-08T05:35:11;103163.22;;;-5.80;89.89
76853;BME280;65825;52.232;10.566;2023-02-08T05:37:36;103157.25;;;-5.91;90.56
76853;BME280;65825;52.232;10.566;2023-02-08T05:40:01;103149.78;;;-5.88;90.55
76853;BME280;65825;52.232;10.566;2023-02-08T05:42:27;103155.38;;;-5.82;89.70
76853;BME280;65825;52.232;10.566;2023-02-08T05:44:52;103158.66;;;-5.71;89.16
76853;BME280;65825;52.232;10.566;2023-02-08T05:47:17;103156.44;;;-5.78;89.16
76853;BME280;65825;52.232;10.566;2023-02-08T05:49:42;103152.81;;;-5.82;89.17
76853;BME280;65825;52.232;10.566;2023-02-08T05:52:08;103154.66;;;-5.79;89.39
76853;BME280;65825;52.232;10.566;2023-02-08T05:54:33;103153.59;;;-5.83;89.50
76853;BME280;65825;52.232;10.566;2023-02-08T05:56:58;103152.91;;;-5.92;90.00
76853;BME280;65825;52.232;10.566;2023-02-08T05:59:24;103156.16;;;-5.83;88.26
76853;BME280;65825;52.232;10.566;2023-02-08T06:01:49;103157.34;;;-5.78;88.47
76853;BME280;65825;52.232;10.566;2023-02-08T06:04:14;103156.81;;;-5.74;87.87
76853;BME280;65825;52.232;10.566;2023-02-08T06:06:39;103159.13;;;-5.65;87.82
76853;BME280;65825;52.232;10.566;2023-02-08T06:09:05;103162.47;;;-5.66;87.42
76853;BME280;65825;52.232;10.566;2023-02-08T06:11:30;103157.31;;;-5.55;87.53
76853;BME280;65825;52.232;10.566;2023-02-08T06:13:55;103157.19;;;-5.56;87.17
76853;BME280;65825;52.232;10.566;2023-02-08T06:16:20;103161.47;;;-5.57;86.89
76853;BME280;65825;52.232;10.566;2023-02-08T06:18:46;103163.38;;;-5.54;87.01
76853;BME280;65825;52.232;10.566;2023-02-08T06:21:11;103158.34;;;-5.53;86.68
76853;BME280;65825;52.232;10.566;2023-02-08T06:23:37;103158.91;;;-5.57;86.90
76853;BME280;65825;52.232;10.566;2023-02-08T06:26:02;103163.50;;;-5.64;87.39
76853;BME280;65825;52.232;10.566;2023-02-08T06:28:27;103160.56;;;-5.57;87.04
76853;BME280;65825;52.232;10.566;2023-02-08T06:30:53;103159.78;;;-5.56;85.98
76853;BME280;65825;52.232;10.566;2023-02-08T06:33:18;103163.25;;;-5.56;86.38
76853;BME280;65825;52.232;10.566;2023-02-08T06:35:49;103160.31;;;-5.49;85.96
76853;BME280;65825;52.232;10.566;2023-02-08T06:38:15;103156.22;;;-5.47;85.85
76853;BME280;65825;52.232;10.566;2023-02-08T06:40:40;103161.00;;;-5.51;85.92
76853;BME280;65825;52.232;10.566;2023-02-08T06:43:05;103165.38;;;-5.50;86.01
76853;BME280;65825;52.232;10.566;2023-02-08T06:45:31;103158.66;;;-5.37;85.96
76853;BME280;65825;52.232;10.566;2023-02-08T06:47:56;103169.63;;;-5.39;85.46
76853;BME280;65825;52.232;10.566;2023-02-08T06:50:21;103169.38;;;-5.42;85.81
76853;BME280;65825;52.232;10.566;2023-02-08T06:52:46;103167.13;;;-5.38;85.71
76853;BME280;65825;52.232;10.566;2023-02-08T06:55:12;103160.06;;;-5.29;85.75
76853;BME280;65825;52.232;10.566;2023-02-08T06:57:37;103164.34;;;-5.29;85.42
76853;BME280;65825;52.232;10.566;2023-02-08T07:00:04;103154.13;;;-5.28;85.66
76853;BME280;65825;52.232;10.566;2023-02-08T07:02:29;103161.28;;;-5.24;85.25
76853;BME280;65825;52.232;10.566;2023-02-08T07:04:55;103154.91;;;-5.17;85.24
76853;BME280;65825;52.232;10.566;2023-02-08T07:07:20;103159.47;;;-5.13;84.63
76853;BME280;65825;52.232;10.566;2023-02-08T07:09:45;103165.88;;;-5.20;85.20
76853;BME280;65825;52.232;10.566;2023-02-08T07:12:11;103160.50;;;-5.23;85.59
76853;BME280;65825;52.232;10.566;2023-02-08T07:14:39;103155.28;;;-5.00;84.75
76853;BME280;65825;52.232;10.566;2023-02-08T07:17:04;103156.84;;;-5.02;84.99
76853;BME280;65825;52.232;10.566;2023-02-08T07:19:30;103159.88;;;-4.96;85.14
76853;BME280;65825;52.232;10.566;2023-02-08T07:21:56;103160.41;;;-4.88;84.73
76853;BME280;65825;52.232;10.566;2023-02-08T07:24:23;103159.38;;;-4.90;84.70
76853;BME280;65825;52.232;10.566;2023-02-08T07:26:48;103159.03;;;-4.83;84.21
76853;BME280;65825;52.232;10.566;2023-02-08T07:29:14;103155.25;;;-4.64;83.76
76853;BME280;65825;52.232;10.566;2023-02-08T07:31:39;103162.00;;;-4.53;83.08
76853;BME280;65825;52.232;10.566;2023-02-08T07:34:04;103162.06;;;-4.64;83.23
76853;BME280;65825;52.232;10.566;2023-02-08T07:36:30;103156.63;;;-4.56;83.07
76853;BME280;65825;52.232;10.566;2023-02-08T07:38:55;103160.47;;;-4.38;82.58
76853;BME280;65825;52.232;10.566;2023-02-08T07:41:20;103158.09;;;-4.35;82.03
76853;BME280;65825;52.232;10.566;2023-02-08T07:43:46;103160.41;;;-4.51;82.81
76853;BME280;65825;52.232;10.566;2023-02-08T07:46:17;103162.22;;;-4.50;83.26
76853;BME280;65825;52.232;10.566;2023-02-08T07:48:43;103156.00;;;-4.40;82.92
76853;BME280;65825;52.232;10.566;2023-02-08T07:51:09;103159.00;;;-4.34;82.66
76853;BME280;65825;52.232;10.566;2023-02-08T07:53:35;103167.88;;;-4.18;82.54
76853;BME280;65825;52.232;10.566;2023-02-08T07:56:00;103167.28;;;-4.01;82.49
76853;BME280;65825;52.232;10.566;2023-02-08T07:58:26;103162.91;;;-4.02;82.50
76853;BME280;65825;52.232;10.566;2023-02-08T08:00:51;103163.09;;;-3.99;82.48
76853;BME280;65825;52.232;10.566;2023-02-08T08:03:16;103161.34;;;-3.87;82.41
76853;BME280;65825;52.232;10.566;2023-02-08T08:05:42;103161.44;;;-3.72;82.49
76853;BME280;65825;52.232;10.566;2023-02-08T08:08:08;103160.72;;;-3.57;82.26
76853;BME280;65825;52.232;10.566;2023-02-08T08:10:34;103153.03;;;-3.29;81.50
76853;BME280;65825;52.232;10.566;2023-02-08T08:12:59;103148.19;;;-3.25;80.49
76853;BME280;65825;52.232;10.566;2023-02-08T08:15:25;103147.16;;;-3.14;80.79
76853;BME280;65825;52.232;10.566;2023-02-08T08:17:51;103156.38;;;-2.77;79.72
76853;BME280;65825;52.232;10.566;2023-02-08T08:20:16;103150.50;;;-2.74;79.35
76853;BME280;65825;52.232;10.566;2023-02-08T08:22:42;103152.28;;;-2.59;79.18
76853;BME280;65825;52.232;10.566;2023-02-08T08:25:07;103145.09;;;-2.35;77.59
76853;BME280;65825;52.232;10.566;2023-02-08T08:27:32;103149.13;;;-2.11;77.84
76853;BME280;65825;52.232;10.566;2023-02-08T08:29:59;103151.09;;;-1.93;76.68
76853;BME280;65825;52.232;10.566;2023-02-08T08:32:24;103151.50;;;-1.71;76.94
76853;BME280;65825;52.232;10.566;2023-02-08T08:34:49;103152.03;;;-1.62;75.92
76853;BME280;65825;52.232;10.566;2023-02-08T08:37:15;103146.75;;;-1.63;75.53
76853;BME280;65825;52.232;10.566;2023-02-08T08:39:41;103145.25;;;-1.29;74.82
76853;BME280;65825;52.232;10.566;2023-02-08T08:42:07;103141.31;;;-1.07;74.01
76853;BME280;65825;52.232;10.566;2023-02-08T08:44:32;103134.69;;;-1.02;73.12
76853;BME280;65825;52.232;10.566;2023-02-08T08:46:58;103139.88;;;-1.02;73.35
76853;BME280;65825;52.232;10.566;2023-02-08T08:49:25;103132.59;;;-0.93;73.67
76853;BME280;65825;52.232;10.566;2023-02-08T08:51:51;103128.84;;;-0.66;72.80
76853;BME280;65825;52.232;10.566;2023-02-08T08:54:17;103124.28;;;-0.54;71.93
76853;BME280;65825;52.232;10.566;2023-02-08T08:56:43;103124.69;;;-0.47;72.18
76853;BME280;65825;52.232;10.566;2023-02-08T08:59:08;103126.72;;;-0.41;69.95
76853;BME280;65825;52.232;10.566;2023-02-08T09:01:33;103120.97;;;-0.18;70.58
76853;BME280;65825;52.232;10.566;2023-02-08T09:03:59;103127.44;;;0.07;69.89
76853;BME280;65825;52.232;10.566;2023-02-08T09:06:24;103128.78;;;0.17;69.04
76853;BME280;65825;52.232;10.566;2023-02-08T09:08:50;103115.16;;;0.21;67.50
76853;BME280;65825;52.232;10.566;2023-02-08T09:11:15;103118.41;;;0.34;66.54
76853;BME280;65825;52.232;10.566;2023-02-08T09:13:41;103125.13;;;0.48;66.20
76853;BME280;65825;52.232;10.566;2023-02-08T09:16:16;103122.34;;;0.80;64.87
76853;BME280;65825;52.232;10.566;2023-02-08T09:18:42;103127.63;;;1.01;64.07
76853;BME280;65825;52.232;10.566;2023-02-08T09:21:13;103116.53;;;1.43;63.22
76853;BME280;65825;52.232;10.566;2023-02-08T09:23:39;103112.72;;;1.74;62.41
76853;BME280;65825;52.232;10.566;2023-02-08T09:26:09;103116.31;;;1.97;62.00
76853;BME280;65825;52.232;10.566;2023-02-08T09:28:35;103121.69;;;2.01;61.22
76853;BME280;65825;52.232;10.566;2023-02-08T09:31:14;103120.53;;;2.15;60.06
76853;BME280;65825;52.232;10.566;2023-02-08T09:33:41;103124.44;;;2.47;60.39
76853;BME280;65825;52.232;10.566;2023-02-08T09:36:07;103118.66;;;2.76;58.15
76853;BME280;65825;52.232;10.566;2023-02-08T09:38:33;103120.38;;;3.94;57.42
76853;BME280;65825;52.232;10.566;2023-02-08T09:49:23;103107.31;;;20.09;20.21
76853;BME280;65825;52.232;10.566;2023-02-08T09:51:57;103099.97;;;22.05;18.29
76853;BME280;65825;52.232;10.566;2023-02-08T09:54:30;103098.41;;;23.23;17.32
76853;BME280;65825;52.232;10.566;2023-02-08T09:56:59;103098.66;;;23.17;16.07
76853;BME280;65825;52.232;10.566;2023-02-08T09:59:28;103103.44;;;24.57;15.58
76853;BME280;65825;52.232;10.566;2023-02-08T10:04:40;103110.31;;;26.39;13.55
76853;BME280;65825;52.232;10.566;2023-02-08T10:07:12;103106.19;;;25.39;13.27
76853;BME280;65825;52.232;10.566;2023-02-08T10:09:37;103103.22;;;26.07;13.32
76853;BME280;65825;52.232;10.566;2023-02-08T10:12:10;103093.81;;;26.87;13.33
76853;BME280;65825;52.232;10.566;2023-02-08T10:14:50;103094.38;;;27.76;12.25
76853;BME280;65825;52.232;10.566;2023-02-08T10:20:11;103088.78;;;28.06;11.16
76853;BME280;65825;52.232;10.566;2023-02-08T10:23:06;103092.50;;;27.50;11.66
76853;BME280;65825;52.232;10.566;2023-02-08T10:28:33;103081.34;;;29.00;11.17
76853;BME280;65825;52.232;10.566;2023-02-08T10:34:02;103074.00;;;29.86;9.83
76853;BME280;65825;52.232;10.566;2023-02-08T10:36:35;103075.44;;;30.15;9.78
76853;BME280;65825;52.232;10.566;2023-02-08T10:39:14;103076.34;;;30.27;8.35
76853;BME280;65825;52.232;10.566;2023-02-08T10:41:41;103073.00;;;31.58;8.34
76853;BME280;65825;52.232;10.566;2023-02-08T10:44:29;103072.88;;;31.60;8.03
76853;BME280;65825;52.232;10.566;2023-02-08T10:47:02;103066.34;;;31.29;8.08
76853;BME280;65825;52.232;10.566;2023-02-08T10:52:01;103056.16;;;30.29;8.33
76853;BME280;65825;52.232;10.566;2023-02-08T10:54:26;103054.03;;;31.35;7.80
76853;BME280;65825;52.232;10.566;2023-02-08T10:57:10;103059.34;;;31.03;7.92
76853;BME280;65825;52.232;10.566;2023-02-08T10:59:46;103054.41;;;32.06;7.69
76853;BME280;65825;52.232;10.566;2023-02-08T11:02:21;103045.47;;;31.39;7.60
76853;BME280;65825;52.232;10.566;2023-02-08T11:05:02;103045.44;;;31.17;8.07
76853;BME280;65825;52.232;10.566;2023-02-08T11:07:27;103042.03;;;31.91;7.92
76853;BME280;65825;52.232;10.566;2023-02-08T11:09:53;103041.66;;;33.09;7.71
76853;BME280;65825;52.232;10.566;2023-02-08T11:12:20;103040.41;;;33.22;6.61
76853;BME280;65825;52.232;10.566;2023-02-08T11:14:48;103034.03;;;32.62;7.50
76853;BME280;65825;52.232;10.566;2023-02-08T11:17:29;103033.81;;;31.04;7.75
76853;BME280;65825;52.232;10.566;2023-02-08T11:19:57;103025.13;;;31.97;7.37
76853;BME280;65825;52.232;10.566;2023-02-08T11:22:24;103024.00;;;32.92;6.63
76853;BME280;65825;52.232;10.566;2023-02-08T11:25:02;103028.13;;;32.87;6.56
76853;BME280;65825;52.232;10.566;2023-02-08T11:27:29;103030.19;;;31.59;7.31
76853;BME280;65825;52.232;10.566;2023-02-08T11:32:39;103015.78;;;30.80;8.30
76853;BME280;65825;52.232;10.566;2023-02-08T11:37:50;103009.81;;;32.78;6.96
76853;BME280;65825;52.232;10.566;2023-02-08T11:40:39;103014.78;;;32.00;7.21
76853;BME280;65825;52.232;10.566;2023-02-08T11:43:20;103018.59;;;32.61;7.13
76853;BME280;65825;52.232;10.566;2023-02-08T11:45:46;103005.72;;;32.31;7.36
76853;BME280;65825;52.232;10.566;2023-02-08T11:48:36;102999.00;;;33.36;7.00
76853;BME280;65825;52.232;10.566;2023-02-08T11:51:04;103000.09;;;33.83;6.62
76853;BME280;65825;52.232;10.566;2023-02-08T11:53:33;102999.84;;;34.14;6.45
76853;BME280;65825;52.232;10.566;2023-02-08T11:56:18;103003.56;;;33.94;6.54
76853;BME280;65825;52.232;10.566;2023-02-08T12:01:33;102989.63;;;32.58;6.66
76853;BME280;65825;52.232;10.566;2023-02-08T12:04:01;102999.03;;;31.39;7.41
76853;BME280;65825;52.232;10.566;2023-02-08T12:11:49;103005.28;;;32.47;7.04
76853;BME280;65825;52.232;10.566;2023-02-08T12:20:27;102995.69;;;33.42;6.79
76853;BME280;65825;52.232;10.566;2023-02-08T12:23:12;102982.88;;;33.52;7.17
76853;BME280;65825;52.232;10.566;2023-02-08T12:25:48;102975.97;;;32.79;7.18
76853;BME280;65825;52.232;10.566;2023-02-08T12:28:26;102975.25;;;33.16;6.85
76853;BME280;65825;52.232;10.566;2023-02-08T12:31:03;102985.19;;;33.66;6.70
76853;BME280;65825;52.232;10.566;2023-02-08T12:33:38;102976.97;;;34.61;6.50
76853;BME280;65825;52.232;10.566;2023-02-08T12:36:27;102976.28;;;34.31;6.11
76853;BME280;65825;52.232;10.566;2023-02-08T12:45:17;102958.66;;;34.43;6.68
76853;BME280;65825;52.232;10.566;2023-02-08T12:50:46;102952.06;;;34.82;5.70
76853;BME280;65825;52.232;10.566;2023-02-08T12:53:19;102948.28;;;33.61;6.84
76853;BME280;65825;52.232;10.566;2023-02-08T12:55:46;102955.44;;;32.73;7.45
76853;BME280;65825;52.232;10.566;2023-02-08T12:58:23;102948.25;;;33.02;7.37
76853;BME280;65825;52.232;10.566;2023-02-08T13:00:51;102942.34;;;32.97;6.78
76853;BME280;65825;52.232;10.566;2023-02-08T13:05:49;102944.75;;;30.70;8.36
76853;BME280;65825;52.232;10.566;2023-02-08T13:11:10;102939.38;;;29.31;9.46
76853;BME280;65825;52.232;10.566;2023-02-08T13:13:41;102926.97;;;28.66;9.85
76853;BME280;65825;52.232;10.566;2023-02-08T13:16:41;102933.88;;;27.01;10.97
76853;BME280;65825;52.232;10.566;2023-02-08T13:19:25;102915.06;;;24.93;13.12
76853;BME280;65825;52.232;10.566;2023-02-08T13:21:52;102915.31;;;23.18;14.72
76853;BME280;65825;52.232;10.566;2023-02-08T13:24:26;102905.69;;;21.14;17.27
76853;BME280;65825;52.232;10.566;2023-02-08T13:26:52;102917.03;;;18.99;19.47
76853;BME280;65825;52.232;10.566;2023-02-08T13:29:18;102912.09;;;19.92;18.41
76853;BME280;65825;52.232;10.566;2023-02-08T13:31:48;102900.03;;;20.53;18.44
76853;BME280;65825;52.232;10.566;2023-02-08T13:34:36;102895.34;;;21.68;16.89
76853;BME280;65825;52.232;10.566;2023-02-08T13:37:06;102895.91;;;20.44;19.13
76853;BME280;65825;52.232;10.566;2023-02-08T13:39:43;102891.41;;;19.96;19.47
76853;BME280;65825;52.232;10.566;2023-02-08T13:42:31;102890.25;;;20.29;18.77
76853;BME280;65825;52.232;10.566;2023-02-08T13:44:59;102890.91;;;19.60;19.09
76853;BME280;65825;52.232;10.566;2023-02-08T13:47:28;102883.69;;;19.09;19.80
76853;BME280;65825;52.232;10.566;2023-02-08T13:57:54;102883.69;;;18.51;21.11
76853;BME280;65825;52.232;10.566;2023-02-08T14:00:21;102886.16;;;17.64;22.52
76853;BME280;65825;52.232;10.566;2023-02-08T14:03:42;102888.28;;;17.85;21.92
76853;BME280;65825;52.232;10.566;2023-02-08T14:06:02;102894.50;;;18.48;21.30
76853;BME280;65825;52.232;10.566;2023-02-08T14:08:34;102890.84;;;17.88;21.12
76853;BME280;65825;52.232;10.566;2023-02-08T14:14:03;102880.94;;;16.85;23.33
76853;BME280;65825;52.232;10.566;2023-02-08T14:16:34;102880.03;;;17.92;21.92
76853;BME280;65825;52.232;10.566;2023-02-08T14:19:04;102887.88;;;17.30;22.08
76853;BME280;65825;52.232;10.566;2023-02-08T14:21:37;102872.13;;;16.81;22.17
76853;BME280;65825;52.232;10.566;2023-02-08T14:24:19;102867.53;;;16.50;22.99
76853;BME280;65825;52.232;10.566;2023-02-08T14:26:45;102870.84;;;16.61;23.11
76853;BME280;65825;52.232;10.566;2023-02-08T14:29:19;102868.00;;;16.26;23.64
76853;BME280;65825;52.232;10.566;2023-02-08T14:31:45;102863.63;;;15.25;24.85
76853;BME280;65825;52.232;10.566;2023-02-08T14:34:29;102858.38;;;15.73;24.47
76853;BME280;65825;52.232;10.566;2023-02-08T14:36:59;102861.44;;;13.54;26.67